createdAt,value
2022-10-03T00:01:58.741Z,1.97
2022-10-03T00:07:27.981Z,2.65
2022-10-03T00:12:59.968Z,2.20
2022-10-03T00:18:29.579Z,2.05
2022-10-03T00:23:57.800Z,1.90
2022-10-03T00:29:14.884Z,2.40
2022-10-03T00:34:38.464Z,2.10
2022-10-03T00:39:44.243Z,2.40
2022-10-03T00:45:14.186Z,2.40
2022-10-03T00:51:26.993Z,2.40
2022-10-03T00:56:51.547Z,1.70
2022-10-03T01:01:54.091Z,2.00
2022-10-03T01:07:15.123Z,2.00
2022-10-03T01:12:57.560Z,1.80
2022-10-03T01:18:26.636Z,1.97
2022-10-03T01:23:43.716Z,1.93
2022-10-03T01:29:07.288Z,1.65
2022-10-03T01:34:52.048Z,1.80
2022-10-03T01:45:54.034Z,1.95
2022-10-03T01:51:01.683Z,1.90
2022-10-03T01:56:25.933Z,2.00
2022-10-03T02:01:54.070Z,2.35
2022-10-03T02:07:12.366Z,2.10
2022-10-03T02:12:27.665Z,1.70
2022-10-03T02:17:56.266Z,2.35
2022-10-03T02:22:59.552Z,2.33
2022-10-03T02:28:30.713Z,2.90
2022-10-03T02:33:50.718Z,2.25
2022-10-03T02:39:23.495Z,2.40
2022-10-03T02:44:34.563Z,2.35
2022-10-03T02:50:29.963Z,2.20
2022-10-03T02:55:42.141Z,2.55
2022-10-03T03:00:53.328Z,1.70
2022-10-03T03:06:29.900Z,2.20
2022-10-03T03:11:44.199Z,2.25
2022-10-03T03:16:52.914Z,1.80
2022-10-03T03:22:23.361Z,2.50
2022-10-03T03:27:43.163Z,2.70
2022-10-03T03:33:24.332Z,2.40
2022-10-03T03:38:44.679Z,3.00
2022-10-03T03:44:14.076Z,2.40
2022-10-03T03:49:29.443Z,2.20
2022-10-03T03:54:54.568Z,2.70
2022-10-03T04:00:17.437Z,2.00
2022-10-03T04:05:44.202Z,2.37
2022-10-03T04:11:13.273Z,2.20
2022-10-03T04:16:55.201Z,2.40
2022-10-03T04:22:38.751Z,2.07
2022-10-03T04:27:57.825Z,2.20
2022-10-03T04:33:44.203Z,2.60
2022-10-03T04:39:09.092Z,2.80
2022-10-03T04:44:27.342Z,2.50
2022-10-03T04:49:38.417Z,2.23
2022-10-03T04:55:02.465Z,2.30
2022-10-03T05:00:20.790Z,2.90
2022-10-03T05:05:41.656Z,2.25
2022-10-03T05:11:07.971Z,2.40
2022-10-03T05:16:37.770Z,2.65
2022-10-03T05:21:49.683Z,2.20
2022-10-03T05:27:15.007Z,2.75
2022-10-03T05:32:32.916Z,2.60
2022-10-03T05:37:37.723Z,2.30
2022-10-03T05:43:00.264Z,1.50
2022-10-03T05:48:19.887Z,0.80
2022-10-03T05:53:34.258Z,0.25
2022-10-03T05:58:56.461Z,0.50
2022-10-03T06:04:20.656Z,0.40
2022-10-03T06:09:31.225Z,0.50
2022-10-03T06:14:51.966Z,0.70
2022-10-03T06:20:23.261Z,1.30
2022-10-03T06:25:47.195Z,2.60
2022-10-03T06:30:58.843Z,2.90
2022-10-03T06:36:09.842Z,3.60
2022-10-03T06:41:33.389Z,2.67
2022-10-03T06:46:55.898Z,3.00
2022-10-03T06:52:12.896Z,3.85
2022-10-03T06:57:37.475Z,2.45
2022-10-03T07:03:13.056Z,2.63
2022-10-03T07:08:18.063Z,2.80
2022-10-03T07:13:42.253Z,2.40
2022-10-03T07:19:15.428Z,2.75
2022-10-03T07:24:44.608Z,3.13
2022-10-03T07:29:58.793Z,4.10
2022-10-03T07:35:54.779Z,3.13
2022-10-03T07:41:22.674Z,3.67
2022-10-03T07:46:52.872Z,4.67
2022-10-03T07:52:26.711Z,4.73
2022-10-03T07:58:12.141Z,3.40
2022-10-03T08:03:35.895Z,4.10
2022-10-03T08:14:00.871Z,5.18
2022-10-03T08:19:17.019Z,4.60
2022-10-03T08:25:07.965Z,3.95
2022-10-03T08:30:32.353Z,4.62
2022-10-03T08:35:52.871Z,4.55
2022-10-03T08:41:15.778Z,5.43
2022-10-03T08:46:35.810Z,5.00
2022-10-03T08:52:02.868Z,4.85
2022-10-03T08:57:21.988Z,4.53
2022-10-03T09:03:28.337Z,4.75
2022-10-03T09:09:03.855Z,4.05
2022-10-03T09:14:36.909Z,4.97
2022-10-03T09:20:04.377Z,6.03
2022-10-03T09:25:28.388Z,5.90
2022-10-03T09:30:42.480Z,5.97
2022-10-03T09:35:49.065Z,5.68
2022-10-03T09:41:18.881Z,4.45
2022-10-03T09:46:36.322Z,3.12
2022-10-03T09:51:51.533Z,3.30
2022-10-03T09:56:56.334Z,3.65
2022-10-03T10:02:36.038Z,2.95
2022-10-03T10:08:06.630Z,3.10
2022-10-03T10:13:21.590Z,3.15
2022-10-03T10:18:29.501Z,2.67
2022-10-03T10:24:04.123Z,2.87
2022-10-03T10:29:19.611Z,2.28
2022-10-03T10:34:38.934Z,2.65
2022-10-03T10:40:09.558Z,2.65
2022-10-03T10:45:45.610Z,3.58
2022-10-03T10:51:19.005Z,2.83
2022-10-03T10:56:45.624Z,3.20
2022-10-03T11:02:18.713Z,2.75
2022-10-03T11:07:55.133Z,1.90
2022-10-03T11:13:35.805Z,2.67
2022-10-03T11:19:03.949Z,2.20
2022-10-03T11:24:19.767Z,2.53
2022-10-03T11:29:42.740Z,2.00
2022-10-03T11:34:47.911Z,2.25
2022-10-03T11:40:03.692Z,1.73
2022-10-03T11:45:27.401Z,1.52
2022-10-03T11:50:51.452Z,1.95
2022-10-03T11:56:16.672Z,1.73
2022-10-03T12:01:28.721Z,1.83
2022-10-03T12:07:23.557Z,0.90
2022-10-03T12:12:30.900Z,1.42
2022-10-03T12:17:36.507Z,1.80
2022-10-03T12:23:14.050Z,1.90
2022-10-03T12:28:32.031Z,1.85
2022-10-03T12:33:45.886Z,1.67
2022-10-03T12:39:25.751Z,2.08
2022-10-03T12:45:02.767Z,1.30
2022-10-03T12:50:39.474Z,1.45
2022-10-03T12:56:07.642Z,1.15
2022-10-03T13:01:45.802Z,1.35
2022-10-03T13:07:05.775Z,1.35
2022-10-03T13:12:16.606Z,2.10
2022-10-03T13:17:39.497Z,1.37
2022-10-03T13:23:07.946Z,1.60
2022-10-03T13:28:16.190Z,1.12
2022-10-03T13:33:25.392Z,2.67
2022-10-03T13:38:58.172Z,1.60
2022-10-03T13:44:10.667Z,1.37
2022-10-03T13:49:35.584Z,1.40
2022-10-03T13:54:49.833Z,1.73
2022-10-03T14:00:15.086Z,1.70
2022-10-03T14:05:41.864Z,2.15
2022-10-03T14:11:09.598Z,1.50
2022-10-03T14:16:31.218Z,2.03
2022-10-03T14:21:55.928Z,1.30
2022-10-03T14:27:21.010Z,1.98
2022-10-03T14:32:58.222Z,1.60
2022-10-03T14:38:18.832Z,1.83
2022-10-03T14:43:32.717Z,1.87
2022-10-03T14:48:42.390Z,1.55
2022-10-03T14:53:55.277Z,1.65
2022-10-03T14:59:01.759Z,2.15
2022-10-03T15:04:15.635Z,1.25
2022-10-03T15:09:25.570Z,1.40
2022-10-03T15:14:30.911Z,2.33
2022-10-03T15:19:40.131Z,3.00
2022-10-03T15:24:42.891Z,1.77
2022-10-03T15:29:45.493Z,1.70
2022-10-03T15:34:49.826Z,1.60
2022-10-03T15:39:53.413Z,2.30
2022-10-03T15:44:58.456Z,2.05
2022-10-03T15:50:23.329Z,1.75
2022-10-03T15:55:34.578Z,1.87
2022-10-03T16:00:37.805Z,1.95
2022-10-03T16:05:55.617Z,2.10
2022-10-03T16:11:09.075Z,1.60
2022-10-03T16:16:16.992Z,2.22
2022-10-03T16:22:01.519Z,2.03
2022-10-03T16:27:16.742Z,1.73
2022-10-03T16:32:31.146Z,1.85
2022-10-03T16:37:39.776Z,2.08
2022-10-03T16:42:45.580Z,2.08
2022-10-03T16:48:11.215Z,1.70
2022-10-03T16:53:15.149Z,1.55
2022-10-03T16:58:26.179Z,1.85
2022-10-03T17:03:45.356Z,1.87
2022-10-03T17:08:52.683Z,2.22
2022-10-03T17:13:59.762Z,1.77
2022-10-03T17:19:14.726Z,2.33
2022-10-03T17:24:42.150Z,2.10
2022-10-03T17:29:56.500Z,2.50
2022-10-03T17:35:19.171Z,2.70
2022-10-03T17:40:55.303Z,2.47
2022-10-03T17:46:06.836Z,2.67
2022-10-03T17:51:27.443Z,2.65
2022-10-03T17:56:32.773Z,2.40
2022-10-03T18:01:44.343Z,2.62
2022-10-03T18:06:53.035Z,3.40
2022-10-03T18:12:08.342Z,3.07
2022-10-03T18:17:24.351Z,3.10
2022-10-03T18:22:41.293Z,3.78
2022-10-03T18:28:24.086Z,3.85
2022-10-03T18:33:37.966Z,4.80
2022-10-03T18:38:43.721Z,4.20
2022-10-03T18:43:59.661Z,3.53
2022-10-03T18:49:32.875Z,3.70
2022-10-03T18:54:47.412Z,3.87
2022-10-03T19:00:01.874Z,3.03
2022-10-03T19:05:07.032Z,4.00
2022-10-03T19:10:24.689Z,3.07
2022-10-03T19:15:43.976Z,2.87
2022-10-03T19:20:51.436Z,2.60
2022-10-03T19:25:57.261Z,3.00
2022-10-03T19:31:25.571Z,3.00
2022-10-03T19:36:31.623Z,4.10
2022-10-03T19:41:55.482Z,3.93
2022-10-03T19:52:20.044Z,2.50
2022-10-03T19:57:32.181Z,2.20
2022-10-03T20:02:34.668Z,2.20
2022-10-03T20:07:45.377Z,2.47
2022-10-03T20:12:51.761Z,2.80
2022-10-03T20:18:01.958Z,2.40
2022-10-03T20:23:07.234Z,3.25
2022-10-03T20:28:20.028Z,3.70
2022-10-03T20:33:31.518Z,5.20
2022-10-03T20:38:54.622Z,4.10
2022-10-03T20:44:29.413Z,4.23
2022-10-03T20:49:58.819Z,3.75
2022-10-03T20:55:06.116Z,3.70
2022-10-03T21:00:16.687Z,4.00
2022-10-03T21:05:30.667Z,3.05
2022-10-03T21:10:38.383Z,3.25
2022-10-03T21:15:50.995Z,3.15
2022-10-03T21:21:04.846Z,2.70
2022-10-03T21:26:08.894Z,2.40
2022-10-03T21:31:38.097Z,2.80
2022-10-03T21:36:52.119Z,2.25
2022-10-03T21:42:32.025Z,3.40
2022-10-03T21:47:46.148Z,3.00
2022-10-03T21:53:05.599Z,2.10
2022-10-03T21:58:23.105Z,1.80
2022-10-03T22:03:30.851Z,1.63
2022-10-03T22:08:37.024Z,1.60
2022-10-03T22:13:44.556Z,0.85
2022-10-03T22:19:09.325Z,0.80
2022-10-03T22:24:24.123Z,0.55
2022-10-03T22:29:37.292Z,0.55
2022-10-03T22:34:51.668Z,0.85
2022-10-03T22:39:57.747Z,0.80
2022-10-03T22:45:02.364Z,1.10
2022-10-03T22:50:09.917Z,1.65
2022-10-03T22:55:15.341Z,1.95
2022-10-03T23:00:24.542Z,1.30
2022-10-03T23:05:35.336Z,0.95
2022-10-03T23:10:46.981Z,0.70
2022-10-03T23:15:56.528Z,0.90
2022-10-03T23:21:10.954Z,1.05
2022-10-03T23:26:45.429Z,1.20
2022-10-03T23:31:52.294Z,0.90
2022-10-03T23:37:11.496Z,1.20
2022-10-03T23:42:33.201Z,1.25
2022-10-03T23:47:59.627Z,1.70
2022-10-03T23:53:02.297Z,1.73
2022-10-03T23:58:36.620Z,2.20
